FDX54J LIMJ-EYVI
Flight info
| Callsign | FDX54J |
|---|---|
| Flight time | 2h 17m |
| Altitude | 36000 |
| Route | GEN DCT IDREK/N0449F380 DCT MALUG/N0450F370 DCT PISAM DCT TUSIN/N0416F230 M984 KOTEK M866 GERVI |
| Aircraft | B737/M-SDE2E3FGHIRWXY/LB1 |
Departure
| Time | 2026-04-27 10:55 |
|---|---|
| Airport | Genoa Cristoforo Colombo Airport (LIMJ) |
Arrival
| Time | 2026-04-27 13:12 |
|---|---|
| Airport | Vilnius International Airport (EYVI) |
| Time | Latitude | Longitude | Altitude | Speed | Heading |
|---|---|---|---|---|---|
| 2026-04-27 10:42 | 44.41492 | 8.84571 | 0 ft | 0 kts | 323° |
| 2026-04-27 10:47 | 44.41473 | 8.84593 | 17 ft | 4 kts | 317° |
| 2026-04-27 10:47 | 44.41455 | 8.84621 | 17 ft | 4 kts | 299° |
| 2026-04-27 10:47 | 44.41450 | 8.84653 | 18 ft | 3 kts | 239° |
| 2026-04-27 10:48 | 44.41452 | 8.84658 | 17 ft | 0 kts | 232° |
| 2026-04-27 10:50 | 44.41447 | 8.84651 | 18 ft | 2 kts | 224° |
| 2026-04-27 10:50 | 44.41415 | 8.84665 | 17 ft | 9 kts | 133° |
| 2026-04-27 10:51 | 44.41383 | 8.84788 | 19 ft | 18 kts | 105° |
| 2026-04-27 10:51 | 44.41339 | 8.84952 | 17 ft | 14 kts | 156° |
| 2026-04-27 10:51 | 44.41249 | 8.84926 | 17 ft | 13 kts | 194° |
| 2026-04-27 10:51 | 44.41156 | 8.84888 | 15 ft | 14 kts | 202° |
| 2026-04-27 10:52 | 44.41069 | 8.84861 | 17 ft | 13 kts | 146° |
| 2026-04-27 10:52 | 44.41039 | 8.84979 | 17 ft | 13 kts | 105° |
| 2026-04-27 10:52 | 44.41014 | 8.85112 | 12 ft | 16 kts | 105° |
| 2026-04-27 10:52 | 44.40981 | 8.85277 | 15 ft | 19 kts | 105° |
| 2026-04-27 10:53 | 44.40944 | 8.85468 | 17 ft | 22 kts | 105° |
| 2026-04-27 10:53 | 44.40863 | 8.85873 | 20 ft | 20 kts | 105° |
| 2026-04-27 10:53 | 44.40871 | 8.86019 | 23 ft | 13 kts | 72° |
| 2026-04-27 10:54 | 44.40824 | 8.86057 | 21 ft | 10 kts | 225° |
| 2026-04-27 10:54 | 44.40843 | 8.85965 | 24 ft | 10 kts | 289° |
| 2026-04-27 10:54 | 44.40878 | 8.85793 | 22 ft | 40 kts | 285° |
| 2026-04-27 10:54 | 44.41028 | 8.85032 | 14 ft | 119 kts | 285° |
| 2026-04-27 10:55 | 44.41311 | 8.83651 | 146 ft | 168 kts | 286° |
| 2026-04-27 10:55 | 44.41652 | 8.81988 | 747 ft | 190 kts | 283° |
| 2026-04-27 10:55 | 44.41582 | 8.80073 | 1296 ft | 207 kts | 241° |
| 2026-04-27 10:55 | 44.40538 | 8.78692 | 1934 ft | 217 kts | 200° |
| 2026-04-27 10:56 | 44.39004 | 8.78649 | 2505 ft | 234 kts | 160° |
| 2026-04-27 10:56 | 44.37522 | 8.79808 | 3134 ft | 251 kts | 148° |
| 2026-04-27 10:56 | 44.35967 | 8.81025 | 4016 ft | 257 kts | 156° |
| 2026-04-27 10:56 | 44.34255 | 8.81598 | 5070 ft | 255 kts | 180° |
| 2026-04-27 10:57 | 44.32454 | 8.81449 | 5963 ft | 261 kts | 185° |
| 2026-04-27 10:57 | 44.30657 | 8.81392 | 6879 ft | 266 kts | 177° |
| 2026-04-27 10:57 | 44.28783 | 8.81412 | 7701 ft | 272 kts | 185° |
| 2026-04-27 10:57 | 44.26891 | 8.81181 | 8636 ft | 273 kts | 186° |
| 2026-04-27 10:58 | 44.25029 | 8.80967 | 9782 ft | 263 kts | 185° |
| 2026-04-27 10:58 | 44.23203 | 8.80809 | 10733 ft | 264 kts | 183° |
| 2026-04-27 10:58 | 44.21364 | 8.80701 | 11567 ft | 265 kts | 182° |
| 2026-04-27 10:58 | 44.19529 | 8.80597 | 12513 ft | 261 kts | 182° |
| 2026-04-27 10:59 | 44.17723 | 8.80466 | 13413 ft | 262 kts | 182° |
| 2026-04-27 10:59 | 44.15864 | 8.80126 | 13905 ft | 278 kts | 199° |
| 2026-04-27 10:59 | 44.14220 | 8.78626 | 14380 ft | 295 kts | 230° |
| 2026-04-27 11:00 | 44.13353 | 8.73137 | 15906 ft | 304 kts | 276° |
| 2026-04-27 11:00 | 44.13940 | 8.70314 | 16648 ft | 306 kts | 303° |
| 2026-04-27 11:00 | 44.15394 | 8.68183 | 17454 ft | 305 kts | 328° |
| 2026-04-27 11:00 | 44.17322 | 8.66988 | 18223 ft | 306 kts | 347° |
| 2026-04-27 11:01 | 44.19449 | 8.66714 | 18859 ft | 311 kts | 4° |
| 2026-04-27 11:01 | 44.21629 | 8.66989 | 19494 ft | 316 kts | 11° |
| 2026-04-27 11:01 | 44.23637 | 8.68043 | 20564 ft | 306 kts | 31° |
| 2026-04-27 11:01 | 44.25255 | 8.69986 | 21161 ft | 315 kts | 51° |
| 2026-04-27 11:02 | 44.26550 | 8.72578 | 21320 ft | 337 kts | 57° |
| 2026-04-27 11:02 | 44.27815 | 8.75406 | 21480 ft | 357 kts | 58° |
| 2026-04-27 11:02 | 44.29144 | 8.78446 | 21634 ft | 377 kts | 58° |
| 2026-04-27 11:02 | 44.30553 | 8.81658 | 21758 ft | 396 kts | 58° |
| 2026-04-27 11:03 | 44.32033 | 8.85000 | 21880 ft | 413 kts | 57° |
| 2026-04-27 11:03 | 44.33579 | 8.88460 | 22045 ft | 426 kts | 57° |
| 2026-04-27 11:03 | 44.35165 | 8.91995 | 22430 ft | 432 kts | 57° |
| 2026-04-27 11:03 | 44.36769 | 8.95563 | 22960 ft | 434 kts | 57° |
| 2026-04-27 11:04 | 44.38377 | 8.99143 | 23487 ft | 436 kts | 57° |
| 2026-04-27 11:04 | 44.39995 | 9.02747 | 23949 ft | 439 kts | 57° |
| 2026-04-27 11:04 | 44.41632 | 9.06399 | 24279 ft | 446 kts | 57° |
| 2026-04-27 11:04 | 44.42781 | 9.08792 | 24519 ft | 448 kts | 52° |
| 2026-04-27 11:05 | 44.44877 | 9.12026 | 24926 ft | 450 kts | 45° |
| 2026-04-27 11:05 | 44.47114 | 9.15090 | 25443 ft | 449 kts | 43° |
| 2026-04-27 11:05 | 44.49396 | 9.18122 | 25740 ft | 454 kts | 43° |
| 2026-04-27 11:05 | 44.52449 | 9.22180 | 26149 ft | 458 kts | 43° |
| 2026-04-27 11:06 | 44.54006 | 9.24273 | 26407 ft | 459 kts | 43° |
| 2026-04-27 11:06 | 44.56305 | 9.27399 | 26756 ft | 461 kts | 44° |
| 2026-04-27 11:06 | 44.58599 | 9.30551 | 27072 ft | 463 kts | 44° |
| 2026-04-27 11:06 | 44.60898 | 9.33733 | 27362 ft | 465 kts | 44° |
| 2026-04-27 11:07 | 44.63200 | 9.36934 | 27672 ft | 467 kts | 44° |
| 2026-04-27 11:07 | 44.65513 | 9.40158 | 27914 ft | 469 kts | 44° |
| 2026-04-27 11:07 | 44.67821 | 9.43380 | 28353 ft | 468 kts | 44° |
| 2026-04-27 11:07 | 44.70112 | 9.46582 | 28461 ft | 473 kts | 44° |
| 2026-04-27 11:08 | 44.72456 | 9.49860 | 28598 ft | 476 kts | 44° |
| 2026-04-27 11:08 | 44.74801 | 9.53143 | 28950 ft | 475 kts | 44° |
| 2026-04-27 11:08 | 44.77143 | 9.56426 | 29298 ft | 474 kts | 44° |
| 2026-04-27 11:08 | 44.79467 | 9.59685 | 29792 ft | 470 kts | 44° |
| 2026-04-27 11:09 | 44.81768 | 9.62917 | 30433 ft | 463 kts | 44° |
| 2026-04-27 11:09 | 44.84045 | 9.66119 | 30903 ft | 462 kts | 44° |
| 2026-04-27 11:09 | 44.86319 | 9.69320 | 31260 ft | 462 kts | 44° |
| 2026-04-27 11:09 | 44.88595 | 9.72526 | 31657 ft | 461 kts | 44° |
| 2026-04-27 11:10 | 44.90858 | 9.75720 | 32107 ft | 459 kts | 44° |
| 2026-04-27 11:10 | 44.93116 | 9.78909 | 32473 ft | 459 kts | 45° |
| 2026-04-27 11:10 | 44.95382 | 9.82114 | 32744 ft | 461 kts | 45° |
| 2026-04-27 11:10 | 44.97619 | 9.85281 | 33104 ft | 460 kts | 45° |
| 2026-04-27 11:11 | 44.99870 | 9.88473 | 33498 ft | 458 kts | 45° |
| 2026-04-27 11:11 | 45.02116 | 9.91661 | 33834 ft | 457 kts | 45° |
| 2026-04-27 11:11 | 45.04357 | 9.94846 | 34148 ft | 456 kts | 45° |
| 2026-04-27 11:11 | 45.06595 | 9.98030 | 34450 ft | 456 kts | 45° |
| 2026-04-27 11:12 | 45.08828 | 10.01211 | 34792 ft | 454 kts | 45° |
| 2026-04-27 11:12 | 45.11050 | 10.04379 | 35127 ft | 453 kts | 45° |
| 2026-04-27 11:12 | 45.13269 | 10.07547 | 35441 ft | 451 kts | 46° |
| 2026-04-27 11:12 | 45.15480 | 10.10707 | 35692 ft | 451 kts | 46° |
| 2026-04-27 11:13 | 45.17699 | 10.13883 | 35881 ft | 453 kts | 46° |
| 2026-04-27 11:13 | 45.19920 | 10.17066 | 36010 ft | 456 kts | 46° |
| 2026-04-27 11:13 | 45.22129 | 10.20235 | 36144 ft | 458 kts | 47° |
| 2026-04-27 11:13 | 45.24375 | 10.23461 | 36278 ft | 461 kts | 47° |
| 2026-04-27 11:14 | 45.26637 | 10.26714 | 36379 ft | 464 kts | 47° |
| 2026-04-27 11:14 | 45.28918 | 10.29999 | 36481 ft | 468 kts | 46° |
| 2026-04-27 11:14 | 45.31207 | 10.33298 | 36671 ft | 468 kts | 46° |
| 2026-04-27 11:14 | 45.33496 | 10.36601 | 36867 ft | 469 kts | 46° |
| 2026-04-27 11:15 | 45.35797 | 10.39926 | 36988 ft | 472 kts | 46° |
| 2026-04-27 11:15 | 45.38108 | 10.43269 | 37112 ft | 474 kts | 46° |
| 2026-04-27 11:15 | 45.40420 | 10.46618 | 37282 ft | 475 kts | 46° |
| 2026-04-27 11:15 | 45.42709 | 10.49938 | 37476 ft | 475 kts | 45° |
| 2026-04-27 11:16 | 45.45056 | 10.53346 | 37696 ft | 475 kts | 45° |
| 2026-04-27 11:16 | 45.47335 | 10.56659 | 37918 ft | 474 kts | 45° |
| 2026-04-27 11:16 | 45.49640 | 10.60015 | 38166 ft | 473 kts | 44° |
| 2026-04-27 11:16 | 45.51935 | 10.63360 | 38452 ft | 470 kts | 44° |
| 2026-04-27 11:17 | 45.54214 | 10.66688 | 38782 ft | 466 kts | 44° |
| 2026-04-27 11:17 | 45.56470 | 10.69984 | 39107 ft | 463 kts | 44° |
| 2026-04-27 11:17 | 45.60981 | 10.76586 | 39102 ft | 461 kts | 44° |
| 2026-04-27 11:18 | 45.65438 | 10.83146 | 39098 ft | 460 kts | 45° |
| 2026-04-27 11:18 | 45.69710 | 10.89989 | 39106 ft | 462 kts | 47° |
| 2026-04-27 11:19 | 45.73873 | 10.96910 | 39113 ft | 462 kts | 47° |
| 2026-04-27 11:19 | 45.78078 | 11.03871 | 39098 ft | 462 kts | 47° |
| 2026-04-27 11:20 | 45.82305 | 11.10825 | 39138 ft | 462 kts | 46° |
| 2026-04-27 11:20 | 45.86531 | 11.17774 | 39237 ft | 462 kts | 46° |
| 2026-04-27 11:21 | 45.90757 | 11.24735 | 39241 ft | 464 kts | 46° |
| 2026-04-27 11:21 | 45.94977 | 11.31709 | 39238 ft | 465 kts | 46° |
| 2026-04-27 11:22 | 45.99232 | 11.38758 | 39238 ft | 467 kts | 46° |
| 2026-04-27 11:22 | 46.03491 | 11.45836 | 39245 ft | 468 kts | 46° |
| 2026-04-27 11:23 | 46.07717 | 11.52876 | 39239 ft | 460 kts | 46° |
| 2026-04-27 11:23 | 46.11901 | 11.59864 | 39244 ft | 462 kts | 46° |
| 2026-04-27 11:24 | 46.16096 | 11.66881 | 39238 ft | 466 kts | 46° |
| 2026-04-27 11:24 | 46.20333 | 11.73989 | 39235 ft | 469 kts | 46° |
| 2026-04-27 11:25 | 46.24589 | 11.81153 | 39238 ft | 471 kts | 46° |
| 2026-04-27 11:25 | 46.28854 | 11.88351 | 39241 ft | 472 kts | 47° |
| 2026-04-27 11:26 | 46.33125 | 11.95575 | 39232 ft | 472 kts | 47° |
| 2026-04-27 11:26 | 46.37366 | 12.02770 | 39230 ft | 468 kts | 47° |
| 2026-04-27 11:27 | 46.41603 | 12.09973 | 39241 ft | 470 kts | 47° |
| 2026-04-27 11:27 | 46.45837 | 12.17190 | 39233 ft | 470 kts | 47° |
| 2026-04-27 11:28 | 46.50066 | 12.24421 | 39230 ft | 469 kts | 47° |
| 2026-04-27 11:28 | 46.54293 | 12.31665 | 39242 ft | 469 kts | 47° |
| 2026-04-27 11:29 | 46.58473 | 12.38849 | 39234 ft | 467 kts | 47° |
| 2026-04-27 11:29 | 46.62656 | 12.46057 | 39239 ft | 466 kts | 47° |
| 2026-04-27 11:30 | 46.66841 | 12.53287 | 39236 ft | 466 kts | 46° |
| 2026-04-27 11:30 | 46.71088 | 12.60432 | 39216 ft | 465 kts | 41° |
| 2026-04-27 11:31 | 46.75976 | 12.66537 | 39216 ft | 462 kts | 36° |
| 2026-04-27 11:31 | 46.80969 | 12.72435 | 39202 ft | 461 kts | 36° |
| 2026-04-27 11:32 | 46.85890 | 12.78306 | 39205 ft | 458 kts | 36° |
| 2026-04-27 11:32 | 46.90804 | 12.84249 | 39198 ft | 458 kts | 37° |
| 2026-04-27 11:33 | 46.95720 | 12.90236 | 39210 ft | 459 kts | 37° |
| 2026-04-27 11:33 | 47.00599 | 12.96198 | 39210 ft | 461 kts | 37° |
| 2026-04-27 11:34 | 47.05567 | 13.02283 | 39215 ft | 462 kts | 37° |
| 2026-04-27 11:34 | 47.10481 | 13.08315 | 39221 ft | 464 kts | 37° |
| 2026-04-27 11:35 | 47.15429 | 13.14405 | 39221 ft | 463 kts | 37° |
| 2026-04-27 11:35 | 47.20368 | 13.20499 | 39218 ft | 462 kts | 37° |
| 2026-04-27 11:36 | 47.25272 | 13.26565 | 39211 ft | 459 kts | 37° |
| 2026-04-27 11:36 | 47.30145 | 13.32606 | 39213 ft | 455 kts | 37° |
| 2026-04-27 11:37 | 47.34993 | 13.38631 | 39211 ft | 453 kts | 37° |
| 2026-04-27 11:37 | 47.39770 | 13.44582 | 39210 ft | 452 kts | 37° |
| 2026-04-27 11:38 | 47.44583 | 13.50593 | 39212 ft | 455 kts | 37° |
| 2026-04-27 11:38 | 47.49449 | 13.56683 | 39218 ft | 461 kts | 37° |
| 2026-04-27 11:39 | 47.54357 | 13.62843 | 39226 ft | 464 kts | 37° |
| 2026-04-27 11:39 | 47.59236 | 13.68988 | 39208 ft | 457 kts | 37° |
| 2026-04-27 11:40 | 47.64079 | 13.75100 | 39206 ft | 456 kts | 37° |
| 2026-04-27 11:40 | 47.68916 | 13.81217 | 39214 ft | 457 kts | 37° |
| 2026-04-27 11:41 | 47.73757 | 13.87354 | 39220 ft | 459 kts | 37° |
| 2026-04-27 11:41 | 47.78578 | 13.93483 | 39214 ft | 459 kts | 37° |
| 2026-04-27 11:42 | 47.83430 | 13.99668 | 39210 ft | 460 kts | 37° |
| 2026-04-27 11:42 | 47.88282 | 14.05868 | 39211 ft | 459 kts | 37° |
| 2026-04-27 11:43 | 47.93119 | 14.12066 | 39210 ft | 458 kts | 37° |
| 2026-04-27 11:43 | 47.97939 | 14.18256 | 39210 ft | 456 kts | 37° |
| 2026-04-27 11:44 | 48.02739 | 14.24438 | 39208 ft | 455 kts | 37° |
| 2026-04-27 11:44 | 48.07526 | 14.30617 | 39209 ft | 453 kts | 37° |
| 2026-04-27 11:45 | 48.11486 | 14.35741 | 39210 ft | 452 kts | 37° |
| 2026-04-27 11:45 | 48.17041 | 14.42948 | 39212 ft | 451 kts | 37° |
| 2026-04-27 11:46 | 48.21753 | 14.49077 | 39219 ft | 451 kts | 37° |
| 2026-04-27 11:46 | 48.26491 | 14.55255 | 39211 ft | 450 kts | 37° |
| 2026-04-27 11:47 | 48.31211 | 14.61427 | 39211 ft | 450 kts | 38° |
| 2026-04-27 11:47 | 48.35937 | 14.67622 | 39213 ft | 451 kts | 38° |
| 2026-04-27 11:48 | 48.40677 | 14.73849 | 39212 ft | 452 kts | 38° |
| 2026-04-27 11:48 | 48.45407 | 14.80081 | 39216 ft | 454 kts | 38° |
| 2026-04-27 11:49 | 48.50172 | 14.86376 | 39212 ft | 456 kts | 38° |
| 2026-04-27 11:49 | 48.54953 | 14.92708 | 39218 ft | 458 kts | 38° |
| 2026-04-27 11:50 | 48.59749 | 14.99078 | 39208 ft | 459 kts | 37° |
| 2026-04-27 11:50 | 48.64525 | 15.05437 | 39214 ft | 460 kts | 37° |
| 2026-04-27 11:51 | 48.69329 | 15.11850 | 39218 ft | 461 kts | 38° |
| 2026-04-27 11:52 | 48.75726 | 15.20417 | 39207 ft | 460 kts | 38° |
| 2026-04-27 11:52 | 48.80518 | 15.26857 | 39210 ft | 460 kts | 38° |
| 2026-04-27 11:53 | 48.85305 | 15.33302 | 39218 ft | 459 kts | 38° |
| 2026-04-27 11:53 | 48.89665 | 15.40356 | 39215 ft | 465 kts | 51° |
| 2026-04-27 11:54 | 48.92770 | 15.49062 | 39219 ft | 470 kts | 60° |
| 2026-04-27 11:54 | 48.95546 | 15.58079 | 39208 ft | 470 kts | 61° |
| 2026-04-27 11:55 | 48.98321 | 15.67072 | 39214 ft | 469 kts | 60° |
| 2026-04-27 11:55 | 49.01125 | 15.76039 | 39208 ft | 469 kts | 60° |
| 2026-04-27 11:56 | 49.03939 | 15.85003 | 39209 ft | 469 kts | 60° |
| 2026-04-27 11:56 | 49.06746 | 15.93967 | 39218 ft | 468 kts | 60° |
| 2026-04-27 11:57 | 49.09530 | 16.02892 | 39209 ft | 468 kts | 60° |
| 2026-04-27 11:57 | 49.12323 | 16.11883 | 39216 ft | 469 kts | 61° |
| 2026-04-27 11:58 | 49.15105 | 16.20877 | 39213 ft | 469 kts | 61° |
| 2026-04-27 11:58 | 49.17887 | 16.29900 | 39205 ft | 469 kts | 61° |
| 2026-04-27 11:59 | 49.20664 | 16.38938 | 39221 ft | 469 kts | 61° |
| 2026-04-27 11:59 | 49.23432 | 16.47982 | 39212 ft | 470 kts | 61° |
| 2026-04-27 12:00 | 49.26195 | 16.57042 | 39208 ft | 469 kts | 61° |
| 2026-04-27 12:00 | 49.28931 | 16.66051 | 39229 ft | 469 kts | 61° |
| 2026-04-27 12:01 | 49.31678 | 16.75124 | 39238 ft | 469 kts | 61° |
| 2026-04-27 12:01 | 49.34420 | 16.84214 | 39242 ft | 470 kts | 61° |
| 2026-04-27 12:02 | 49.37160 | 16.93335 | 39241 ft | 471 kts | 61° |
| 2026-04-27 12:02 | 49.39897 | 17.02479 | 39242 ft | 471 kts | 61° |
| 2026-04-27 12:03 | 49.42613 | 17.11584 | 39241 ft | 472 kts | 61° |
| 2026-04-27 12:03 | 49.45334 | 17.20745 | 39238 ft | 471 kts | 62° |
| 2026-04-27 12:04 | 49.48048 | 17.29913 | 39237 ft | 471 kts | 62° |
| 2026-04-27 12:04 | 49.50750 | 17.39079 | 39240 ft | 470 kts | 62° |
| 2026-04-27 12:05 | 49.53445 | 17.48252 | 39237 ft | 470 kts | 62° |
| 2026-04-27 12:05 | 49.56132 | 17.57432 | 39239 ft | 470 kts | 62° |
| 2026-04-27 12:06 | 49.58810 | 17.66620 | 39237 ft | 470 kts | 62° |
| 2026-04-27 12:06 | 49.61470 | 17.75779 | 39239 ft | 470 kts | 62° |
| 2026-04-27 12:07 | 49.64137 | 17.84998 | 39235 ft | 470 kts | 62° |
| 2026-04-27 12:07 | 49.66793 | 17.94214 | 39241 ft | 470 kts | 62° |
| 2026-04-27 12:08 | 49.69445 | 18.03450 | 39239 ft | 470 kts | 62° |
| 2026-04-27 12:08 | 49.72089 | 18.12696 | 39240 ft | 470 kts | 62° |
| 2026-04-27 12:09 | 49.74728 | 18.21959 | 39237 ft | 471 kts | 62° |
| 2026-04-27 12:09 | 49.77357 | 18.31226 | 39241 ft | 470 kts | 62° |
| 2026-04-27 12:10 | 49.79981 | 18.40509 | 39239 ft | 471 kts | 62° |
| 2026-04-27 12:10 | 49.82598 | 18.49801 | 39232 ft | 471 kts | 63° |
| 2026-04-27 12:11 | 49.85432 | 18.58920 | 39230 ft | 466 kts | 53° |
| 2026-04-27 12:11 | 49.89277 | 18.66857 | 39239 ft | 463 kts | 47° |
| 2026-04-27 12:12 | 49.93257 | 18.74724 | 39239 ft | 464 kts | 48° |
| 2026-04-27 12:12 | 49.97190 | 18.82691 | 39242 ft | 465 kts | 49° |
| 2026-04-27 12:13 | 50.01104 | 18.90713 | 39240 ft | 466 kts | 49° |
| 2026-04-27 12:13 | 50.05015 | 18.98758 | 39237 ft | 466 kts | 49° |
| 2026-04-27 12:14 | 50.08909 | 19.06824 | 39239 ft | 466 kts | 49° |
| 2026-04-27 12:14 | 50.12778 | 19.14867 | 39237 ft | 466 kts | 49° |
| 2026-04-27 12:15 | 50.16661 | 19.22960 | 39237 ft | 466 kts | 49° |
| 2026-04-27 12:15 | 50.20541 | 19.31070 | 39241 ft | 466 kts | 49° |
| 2026-04-27 12:16 | 50.24420 | 19.39202 | 39239 ft | 466 kts | 49° |
| 2026-04-27 12:16 | 50.28265 | 19.47288 | 39235 ft | 466 kts | 49° |
| 2026-04-27 12:17 | 50.32123 | 19.55427 | 39242 ft | 466 kts | 49° |
| 2026-04-27 12:17 | 50.35977 | 19.63583 | 39237 ft | 466 kts | 49° |
| 2026-04-27 12:18 | 50.39829 | 19.71758 | 39240 ft | 466 kts | 50° |
| 2026-04-27 12:18 | 50.43673 | 19.79944 | 39242 ft | 466 kts | 50° |
| 2026-04-27 12:19 | 50.47514 | 19.88149 | 39240 ft | 466 kts | 50° |
| 2026-04-27 12:19 | 50.51349 | 19.96366 | 39237 ft | 466 kts | 50° |
| 2026-04-27 12:20 | 50.55174 | 20.04588 | 39237 ft | 466 kts | 50° |
| 2026-04-27 12:20 | 50.59002 | 20.12841 | 39214 ft | 467 kts | 49° |
| 2026-04-27 12:21 | 50.62891 | 20.20928 | 39205 ft | 462 kts | 41° |
| 2026-04-27 12:21 | 50.67814 | 20.27192 | 39213 ft | 450 kts | 25° |
| 2026-04-27 12:22 | 50.73451 | 20.31318 | 39215 ft | 445 kts | 18° |
| 2026-04-27 12:22 | 50.79162 | 20.35123 | 39211 ft | 446 kts | 18° |
| 2026-04-27 12:23 | 50.84871 | 20.38996 | 39214 ft | 446 kts | 19° |
| 2026-04-27 12:23 | 50.90568 | 20.42928 | 39211 ft | 447 kts | 19° |
| 2026-04-27 12:24 | 50.96272 | 20.46890 | 39214 ft | 447 kts | 19° |
| 2026-04-27 12:24 | 51.01937 | 20.50836 | 39212 ft | 448 kts | 19° |
| 2026-04-27 12:25 | 51.07644 | 20.54819 | 39212 ft | 448 kts | 19° |
| 2026-04-27 12:25 | 51.13352 | 20.58814 | 39216 ft | 448 kts | 19° |
| 2026-04-27 12:26 | 51.19061 | 20.62821 | 39217 ft | 448 kts | 19° |
| 2026-04-27 12:26 | 51.24776 | 20.66841 | 39206 ft | 448 kts | 19° |
| 2026-04-27 12:27 | 51.30084 | 20.72118 | 39210 ft | 458 kts | 36° |
| 2026-04-27 12:27 | 51.34592 | 20.79417 | 39211 ft | 463 kts | 42° |
| 2026-04-27 12:28 | 51.38961 | 20.86978 | 39217 ft | 462 kts | 42° |
| 2026-04-27 12:28 | 51.43350 | 20.94532 | 39216 ft | 462 kts | 42° |
| 2026-04-27 12:29 | 51.47755 | 21.02046 | 39214 ft | 462 kts | 41° |
| 2026-04-27 12:29 | 51.52161 | 21.09552 | 39208 ft | 462 kts | 41° |
| 2026-04-27 12:30 | 51.56563 | 21.17073 | 39211 ft | 462 kts | 42° |
| 2026-04-27 12:30 | 51.60936 | 21.24568 | 39203 ft | 462 kts | 41° |
| 2026-04-27 12:31 | 51.65336 | 21.32137 | 39221 ft | 463 kts | 42° |
| 2026-04-27 12:31 | 51.69736 | 21.39727 | 39213 ft | 463 kts | 42° |
| 2026-04-27 12:32 | 51.74140 | 21.47350 | 39212 ft | 464 kts | 42° |
| 2026-04-27 12:32 | 51.78541 | 21.54990 | 39212 ft | 465 kts | 42° |
| 2026-04-27 12:33 | 51.82918 | 21.62611 | 39213 ft | 465 kts | 42° |
| 2026-04-27 12:33 | 51.87322 | 21.70304 | 39209 ft | 466 kts | 42° |
| 2026-04-27 12:34 | 51.91727 | 21.78023 | 39215 ft | 466 kts | 42° |
| 2026-04-27 12:34 | 51.96123 | 21.85748 | 39211 ft | 466 kts | 42° |
| 2026-04-27 12:35 | 52.00514 | 21.93492 | 39213 ft | 466 kts | 42° |
| 2026-04-27 12:35 | 52.04911 | 22.01268 | 39216 ft | 466 kts | 42° |
| 2026-04-27 12:36 | 52.09261 | 22.08985 | 39215 ft | 466 kts | 42° |
| 2026-04-27 12:36 | 52.13755 | 22.16550 | 39201 ft | 459 kts | 33° |
| 2026-04-27 12:37 | 52.19231 | 22.21452 | 39206 ft | 445 kts | 13° |
| 2026-04-27 12:37 | 52.25202 | 22.23661 | 39213 ft | 439 kts | 6° |
| 2026-04-27 12:38 | 52.31204 | 22.25614 | 39212 ft | 440 kts | 7° |
| 2026-04-27 12:38 | 52.36192 | 22.27330 | 39212 ft | 441 kts | 7° |
| 2026-04-27 12:39 | 52.43171 | 22.29788 | 39215 ft | 441 kts | 7° |
| 2026-04-27 12:39 | 52.49180 | 22.31915 | 39212 ft | 442 kts | 8° |
| 2026-04-27 12:40 | 52.54180 | 22.33691 | 39212 ft | 442 kts | 8° |
| 2026-04-27 12:40 | 52.60196 | 22.35834 | 39187 ft | 441 kts | 7° |
| 2026-04-27 12:41 | 52.66186 | 22.37973 | 39179 ft | 439 kts | 7° |
| 2026-04-27 12:41 | 52.72147 | 22.40107 | 39180 ft | 437 kts | 7° |
| 2026-04-27 12:42 | 52.78091 | 22.42240 | 39182 ft | 436 kts | 7° |
| 2026-04-27 12:42 | 52.84017 | 22.44374 | 39182 ft | 435 kts | 7° |
| 2026-04-27 12:43 | 52.89937 | 22.46512 | 39185 ft | 435 kts | 7° |
| 2026-04-27 12:43 | 52.95813 | 22.48640 | 39186 ft | 435 kts | 7° |
| 2026-04-27 12:44 | 53.01730 | 22.50788 | 39184 ft | 435 kts | 7° |
| 2026-04-27 12:44 | 53.07647 | 22.52943 | 39191 ft | 435 kts | 7° |
| 2026-04-27 12:45 | 53.13582 | 22.55111 | 39183 ft | 436 kts | 7° |
| 2026-04-27 12:45 | 53.19515 | 22.57284 | 39183 ft | 437 kts | 7° |
| 2026-04-27 12:46 | 53.25416 | 22.59451 | 39183 ft | 437 kts | 7° |
| 2026-04-27 12:46 | 53.31341 | 22.61633 | 39190 ft | 437 kts | 7° |
| 2026-04-27 12:47 | 53.37277 | 22.63823 | 39195 ft | 437 kts | 7° |
| 2026-04-27 12:47 | 53.43217 | 22.66021 | 39182 ft | 437 kts | 7° |
| 2026-04-27 12:48 | 53.49159 | 22.68227 | 39185 ft | 437 kts | 7° |
| 2026-04-27 12:48 | 53.55101 | 22.70439 | 39185 ft | 438 kts | 7° |
| 2026-04-27 12:49 | 53.61053 | 22.72662 | 39184 ft | 438 kts | 7° |
| 2026-04-27 12:49 | 53.66999 | 22.74888 | 39182 ft | 438 kts | 7° |
| 2026-04-27 12:50 | 53.72914 | 22.77110 | 39183 ft | 438 kts | 7° |
| 2026-04-27 12:50 | 53.78852 | 22.79347 | 39126 ft | 437 kts | 8° |
| 2026-04-27 12:51 | 53.84782 | 22.81588 | 39106 ft | 435 kts | 7° |
| 2026-04-27 12:51 | 53.90680 | 22.83821 | 38805 ft | 437 kts | 7° |
| 2026-04-27 12:51 | 53.93650 | 22.84947 | 38260 ft | 436 kts | 7° |
| 2026-04-27 12:52 | 53.96608 | 22.86074 | 37547 ft | 435 kts | 7° |
| 2026-04-27 12:52 | 53.99555 | 22.87196 | 36850 ft | 433 kts | 7° |
| 2026-04-27 12:52 | 54.02438 | 22.88775 | 36077 ft | 442 kts | 21° |
| 2026-04-27 12:52 | 54.05028 | 22.91729 | 35246 ft | 456 kts | 36° |
| 2026-04-27 12:53 | 54.08645 | 23.00842 | 33568 ft | 484 kts | 66° |
| 2026-04-27 12:53 | 54.09543 | 23.06413 | 32697 ft | 489 kts | 70° |
| 2026-04-27 12:53 | 54.10310 | 23.11991 | 31741 ft | 492 kts | 71° |
| 2026-04-27 12:54 | 54.11050 | 23.17701 | 30739 ft | 494 kts | 72° |
| 2026-04-27 12:54 | 54.11800 | 23.23505 | 29669 ft | 496 kts | 72° |
| 2026-04-27 12:54 | 54.12550 | 23.29199 | 28534 ft | 498 kts | 71° |
| 2026-04-27 12:54 | 54.13331 | 23.34988 | 27341 ft | 500 kts | 71° |
| 2026-04-27 12:55 | 54.14114 | 23.40717 | 26547 ft | 492 kts | 71° |
| 2026-04-27 12:55 | 54.14892 | 23.46371 | 25689 ft | 486 kts | 70° |
| 2026-04-27 12:55 | 54.15661 | 23.51952 | 24870 ft | 480 kts | 70° |
| 2026-04-27 12:55 | 54.16419 | 23.57459 | 24046 ft | 474 kts | 70° |
| 2026-04-27 12:56 | 54.17167 | 23.62905 | 23231 ft | 469 kts | 70° |
| 2026-04-27 12:56 | 54.17895 | 23.68224 | 22431 ft | 463 kts | 70° |
| 2026-04-27 12:56 | 54.18622 | 23.73557 | 21611 ft | 458 kts | 70° |
| 2026-04-27 12:56 | 54.19337 | 23.78826 | 20792 ft | 452 kts | 70° |
| 2026-04-27 12:57 | 54.20041 | 23.84036 | 19983 ft | 447 kts | 70° |
| 2026-04-27 12:57 | 54.20735 | 23.89189 | 19177 ft | 442 kts | 70° |
| 2026-04-27 12:57 | 54.21418 | 23.94281 | 18363 ft | 437 kts | 70° |
| 2026-04-27 12:57 | 54.22090 | 23.99309 | 17557 ft | 432 kts | 70° |
| 2026-04-27 12:58 | 54.22754 | 24.04291 | 16748 ft | 427 kts | 71° |
| 2026-04-27 12:58 | 54.23409 | 24.09222 | 15937 ft | 422 kts | 71° |
| 2026-04-27 12:58 | 54.24045 | 24.14024 | 15137 ft | 418 kts | 71° |
| 2026-04-27 12:58 | 54.24681 | 24.18843 | 14339 ft | 413 kts | 71° |
| 2026-04-27 12:59 | 54.25309 | 24.23618 | 13546 ft | 409 kts | 71° |
| 2026-04-27 12:59 | 54.25927 | 24.28336 | 12761 ft | 404 kts | 71° |
| 2026-04-27 12:59 | 54.26538 | 24.33009 | 11966 ft | 400 kts | 72° |
| 2026-04-27 12:59 | 54.27141 | 24.37642 | 11188 ft | 396 kts | 72° |
| 2026-04-27 13:00 | 54.27732 | 24.42198 | 10762 ft | 383 kts | 72° |
| 2026-04-27 13:00 | 54.28288 | 24.46537 | 10593 ft | 365 kts | 71° |
| 2026-04-27 13:00 | 54.28818 | 24.50686 | 10423 ft | 349 kts | 71° |
| 2026-04-27 13:00 | 54.29326 | 24.54657 | 10260 ft | 334 kts | 71° |
| 2026-04-27 13:01 | 54.29810 | 24.58445 | 10114 ft | 315 kts | 71° |
| 2026-04-27 13:01 | 54.30263 | 24.62003 | 9910 ft | 298 kts | 70° |
| 2026-04-27 13:01 | 54.30701 | 24.65421 | 9427 ft | 294 kts | 70° |
| 2026-04-27 13:01 | 54.31144 | 24.68845 | 8809 ft | 294 kts | 70° |
| 2026-04-27 13:02 | 54.31576 | 24.72210 | 8286 ft | 292 kts | 71° |
| 2026-04-27 13:02 | 54.31677 | 24.75714 | 7710 ft | 301 kts | 96° |
| 2026-04-27 13:02 | 54.30891 | 24.79048 | 7171 ft | 306 kts | 123° |
| 2026-04-27 13:02 | 54.29521 | 24.81820 | 6684 ft | 303 kts | 131° |
| 2026-04-27 13:03 | 54.28483 | 24.84864 | 6143 ft | 292 kts | 98° |
| 2026-04-27 13:03 | 54.28533 | 24.88187 | 5675 ft | 274 kts | 66° |
| 2026-04-27 13:03 | 54.29262 | 24.91061 | 5447 ft | 258 kts | 52° |
| 2026-04-27 13:03 | 54.30211 | 24.93652 | 5200 ft | 256 kts | 49° |
| 2026-04-27 13:04 | 54.31200 | 24.96213 | 4951 ft | 259 kts | 50° |
| 2026-04-27 13:04 | 54.32193 | 24.98810 | 4713 ft | 262 kts | 50° |
| 2026-04-27 13:04 | 54.33183 | 25.01442 | 4455 ft | 263 kts | 51° |
| 2026-04-27 13:04 | 54.34166 | 25.04086 | 4209 ft | 263 kts | 51° |
| 2026-04-27 13:05 | 54.35114 | 25.06652 | 4179 ft | 254 kts | 51° |
| 2026-04-27 13:05 | 54.36137 | 25.09061 | 4160 ft | 242 kts | 34° |
| 2026-04-27 13:05 | 54.37495 | 25.10420 | 4163 ft | 214 kts | 19° |
| 2026-04-27 13:05 | 54.38790 | 25.11416 | 4140 ft | 194 kts | 17° |
| 2026-04-27 13:06 | 54.39977 | 25.12273 | 4099 ft | 176 kts | 14° |
| 2026-04-27 13:06 | 54.41094 | 25.13055 | 4088 ft | 171 kts | 14° |
| 2026-04-27 13:06 | 54.42200 | 25.13823 | 4089 ft | 172 kts | 14° |
| 2026-04-27 13:06 | 54.43311 | 25.14593 | 4101 ft | 169 kts | 14° |
| 2026-04-27 13:07 | 54.44360 | 25.15329 | 4092 ft | 156 kts | 14° |
| 2026-04-27 13:07 | 54.45329 | 25.16005 | 4077 ft | 147 kts | 13° |
| 2026-04-27 13:07 | 54.46278 | 25.16662 | 3952 ft | 148 kts | 13° |
| 2026-04-27 13:07 | 54.47229 | 25.17321 | 3773 ft | 146 kts | 14° |
| 2026-04-27 13:08 | 54.48168 | 25.17974 | 3571 ft | 146 kts | 14° |
| 2026-04-27 13:08 | 54.49105 | 25.18628 | 3403 ft | 145 kts | 14° |
| 2026-04-27 13:08 | 54.50043 | 25.19278 | 3183 ft | 147 kts | 14° |
| 2026-04-27 13:08 | 54.50991 | 25.19939 | 3004 ft | 148 kts | 14° |
| 2026-04-27 13:09 | 54.51945 | 25.20601 | 2818 ft | 147 kts | 14° |
| 2026-04-27 13:09 | 54.52896 | 25.21264 | 2606 ft | 147 kts | 15° |
| 2026-04-27 13:09 | 54.53812 | 25.21914 | 2425 ft | 143 kts | 15° |
| 2026-04-27 13:09 | 54.54755 | 25.22537 | 2234 ft | 151 kts | 15° |
| 2026-04-27 13:10 | 54.55723 | 25.23238 | 2077 ft | 147 kts | 20° |
| 2026-04-27 13:10 | 54.56671 | 25.23949 | 1833 ft | 149 kts | 13° |
| 2026-04-27 13:10 | 54.57632 | 25.24565 | 1646 ft | 145 kts | 15° |
| 2026-04-27 13:10 | 54.58563 | 25.25215 | 1442 ft | 145 kts | 15° |
| 2026-04-27 13:11 | 54.59503 | 25.25883 | 1287 ft | 148 kts | 16° |
| 2026-04-27 13:11 | 54.60474 | 25.26547 | 1082 ft | 152 kts | 17° |
| 2026-04-27 13:11 | 54.61440 | 25.27207 | 850 ft | 149 kts | 20° |
| 2026-04-27 13:11 | 54.62375 | 25.27860 | 653 ft | 141 kts | 18° |
| 2026-04-27 13:12 | 54.63218 | 25.28436 | 605 ft | 110 kts | 22° |
| 2026-04-27 13:12 | 54.63722 | 25.28800 | 628 ft | 47 kts | 22° |
| 2026-04-27 13:12 | 54.63915 | 25.28928 | 640 ft | 26 kts | 21° |
| 2026-04-27 13:12 | 54.64078 | 25.29037 | 647 ft | 24 kts | 22° |
| 2026-04-27 13:13 | 54.64229 | 25.29142 | 652 ft | 23 kts | 22° |
| 2026-04-27 13:13 | 54.64378 | 25.29247 | 655 ft | 24 kts | 22° |
| 2026-04-27 13:13 | 54.64493 | 25.29174 | 655 ft | 19 kts | 287° |
| 2026-04-27 13:13 | 54.64498 | 25.29021 | 659 ft | 6 kts | 230° |
| 2026-04-27 13:14 | 54.64453 | 25.28991 | 656 ft | 9 kts | 197° |
| 2026-04-27 13:14 | 54.64377 | 25.28940 | 654 ft | 15 kts | 202° |
| 2026-04-27 13:14 | 54.64258 | 25.28855 | 651 ft | 22 kts | 202° |
| 2026-04-27 13:14 | 54.64127 | 25.28709 | 646 ft | 24 kts | 250° |
| 2026-04-27 13:15 | 54.64121 | 25.28434 | 640 ft | 21 kts | 268° |
| 2026-04-27 13:15 | 54.64127 | 25.28296 | 644 ft | 9 kts | 278° |
| 2026-04-27 13:15 | 54.64111 | 25.28191 | 638 ft | 9 kts | 240° |
| 2026-04-27 13:15 | 54.64095 | 25.28119 | 639 ft | 2 kts | 257° |
| 2026-04-27 13:16 | 54.64092 | 25.28097 | 639 ft | 2 kts | 256° |
| 2026-04-27 13:16 | 54.64091 | 25.28091 | 638 ft | 0 kts | 256° |